Time;durP1;ratioP1;P1;durP2;ratioP2;P2;SDS_P1;SDS_P2;PMS_P1;PMS_P2;Temp;Humidity;BMP_temperature;BMP_pressure;BME280_temperature;BME280_humidity;BME280_pressure;Samples;Min_cycle;Max_cycle;Signal;HPM_P1;HPM_P2
2022/03/31 00:00:38;;;;;;;35.95;21.63;;;5.30;99.90;;;;;;5089558;28;20028;-52
2022/03/31 00:03:09;;;;;;;32.83;20.05;;;5.10;99.90;;;;;;5088780;28;20036;-51
2022/03/31 00:05:36;;;;;;;33.72;20.42;;;5.20;99.90;;;;;;5089063;28;20044;-53
2022/03/31 00:08:13;;;;;;;35.45;21.63;;;5.10;99.90;;;;;;5088879;28;20024;-53
2022/03/31 00:10:44;;;;;;;36.45;23.27;;;5.10;99.90;;;;;;5088824;28;20032;-52
2022/03/31 00:13:13;;;;;;;36.38;21.83;;;5.10;99.90;;;;;;5088895;28;20031;-51
2022/03/31 00:15:39;;;;;;;31.30;21.23;;;5.10;99.90;;;;;;5089082;28;20103;-52
2022/03/31 00:18:06;;;;;;;33.00;21.45;;;5.10;99.90;;;;;;5088587;28;20044;-52
2022/03/31 00:20:33;;;;;;;34.40;22.67;;;5.20;99.90;;;;;;5088959;28;20035;-51
2022/03/31 00:22:58;;;;;;;32.47;20.02;;;5.20;99.90;;;;;;5088675;28;20526;-52
2022/03/31 00:25:24;;;;;;;32.60;22.17;;;5.20;99.90;;;;;;5088663;28;20020;-53
2022/03/31 00:27:51;;;;;;;31.92;22.67;;;5.20;99.90;;;;;;5088664;28;20062;-53
2022/03/31 00:30:17;;;;;;;29.48;21.08;;;5.20;99.90;;;;;;5070370;28;20055;-51
2022/03/31 00:32:43;;;;;;;32.40;24.00;;;5.20;99.90;;;;;;5087216;28;20032;-52
2022/03/31 00:35:12;;;;;;;31.83;23.58;;;5.20;99.90;;;;;;5069195;28;20028;-52
2022/03/31 00:37:42;;;;;;;37.13;25.35;;;5.00;99.90;;;;;;5070196;28;20020;-52
2022/03/31 00:40:11;;;;;;;38.72;25.63;;;5.00;99.90;;;;;;5088613;28;20035;-52
2022/03/31 00:42:51;;;;;;;36.65;26.33;;;5.00;99.90;;;;;;5088373;28;20012;-52
2022/03/31 00:45:23;;;;;;;33.75;24.85;;;4.90;99.90;;;;;;5088131;28;20135;-52
2022/03/31 00:47:49;;;;;;;31.88;24.33;;;4.80;99.90;;;;;;5088108;28;20731;-54
2022/03/31 00:50:16;;;;;;;36.10;25.95;;;4.70;99.90;;;;;;5088062;28;20032;-52
2022/03/31 00:52:42;;;;;;;36.00;25.92;;;4.70;99.90;;;;;;5087957;28;20032;-51
2022/03/31 00:55:10;;;;;;;30.52;23.73;;;4.70;99.90;;;;;;5087882;28;20032;-53
2022/03/31 00:57:36;;;;;;;35.50;28.50;;;4.60;99.90;;;;;;5088169;28;20012;-52
2022/03/31 01:00:05;;;;;;;39.25;28.70;;;4.60;99.90;;;;;;5088277;28;20028;-51
2022/03/31 01:02:32;;;;;;;39.80;29.25;;;4.70;99.90;;;;;;5087701;28;20058;-51
2022/03/31 01:05:01;;;;;;;38.65;28.65;;;4.70;99.90;;;;;;5087448;28;20016;-52
2022/03/31 01:07:27;;;;;;;37.10;28.00;;;4.60;99.90;;;;;;5077575;28;20054;-52
2022/03/31 01:09:54;;;;;;;38.75;28.52;;;4.70;99.90;;;;;;5068022;28;20028;-51
2022/03/31 01:12:22;;;;;;;39.60;29.33;;;4.60;99.90;;;;;;5067402;28;20095;-53
2022/03/31 01:14:48;;;;;;;;;;;4.60;99.90;;;;;;5068034;28;20044;-52
2022/03/31 01:17:13;;;;;;;37.40;28.95;;;4.50;99.90;;;;;;5067547;28;19924;-52
2022/03/31 01:19:40;;;;;;;38.28;30.00;;;4.60;99.90;;;;;;5067568;28;20103;-52
2022/03/31 01:22:06;;;;;;;39.15;28.67;;;4.60;99.90;;;;;;5067789;28;20031;-51
2022/03/31 01:24:32;;;;;;;36.30;26.77;;;4.60;99.90;;;;;;5067252;28;20563;-52
2022/03/31 01:26:58;;;;;;;35.13;27.98;;;4.60;99.90;;;;;;5067855;28;20020;-51
2022/03/31 01:29:26;;;;;;;32.65;25.20;;;4.60;99.90;;;;;;5067365;28;20161;-52
2022/03/31 01:31:53;;;;;;;33.15;25.15;;;4.60;99.90;;;;;;5067197;28;20028;-51
2022/03/31 01:34:19;;;;;;;35.17;26.40;;;4.50;99.90;;;;;;5067315;28;20032;-52
2022/03/31 01:36:44;;;;;;;35.40;27.27;;;4.50;99.90;;;;;;5064657;28;20669;-52
2022/03/31 01:39:10;;;;;;;35.05;26.00;;;4.60;99.90;;;;;;5067407;28;20040;-52
2022/03/31 01:41:36;;;;;;;37.22;27.08;;;4.50;99.90;;;;;;5067395;28;20028;-51
2022/03/31 01:44:03;;;;;;;38.47;27.92;;;4.50;99.90;;;;;;5068472;28;20567;-51
2022/03/31 01:46:29;;;;;;;32.70;25.85;;;4.50;99.90;;;;;;5082107;28;20373;-54
2022/03/31 01:48:55;;;;;;;36.60;25.85;;;4.50;99.90;;;;;;5082741;28;20089;-54
2022/03/31 01:51:21;;;;;;;35.45;26.60;;;4.40;99.90;;;;;;5088099;28;20032;-52
2022/03/31 01:53:47;;;;;;;39.10;27.20;;;4.30;99.90;;;;;;5087650;28;20406;-53
2022/03/31 01:56:13;;;;;;;34.03;26.73;;;4.40;99.90;;;;;;5088223;28;20468;-50
2022/03/31 01:58:39;;;;;;;35.10;27.15;;;4.40;99.90;;;;;;5087689;28;20086;-52
2022/03/31 02:01:05;;;;;;;35.78;25.10;;;4.40;99.90;;;;;;5087845;28;20028;-53
2022/03/31 02:03:31;;;;;;;37.60;28.45;;;4.40;99.90;;;;;;5087642;28;20024;-52
2022/03/31 02:05:56;;;;;;;37.17;26.48;;;4.50;99.90;;;;;;5087728;28;20494;-51
2022/03/31 02:08:22;;;;;;;31.35;22.88;;;4.40;99.90;;;;;;5087783;28;20198;-51
2022/03/31 02:10:49;;;;;;;32.00;22.85;;;4.40;99.90;;;;;;5088151;28;20085;-52
2022/03/31 02:13:15;;;;;;;27.80;21.52;;;4.30;99.90;;;;;;5087429;28;20024;-51
2022/03/31 02:15:41;;;;;;;30.52;22.10;;;4.30;99.90;;;;;;5089517;28;20730;-52
2022/03/31 02:18:07;;;;;;;28.30;21.77;;;4.30;99.90;;;;;;5091520;28;20036;-53
2022/03/31 02:20:33;;;;;;;27.10;20.80;;;4.30;99.90;;;;;;5092206;28;20024;-51
2022/03/31 02:23:00;;;;;;;27.02;20.92;;;4.40;99.90;;;;;;5091455;28;20535;-52
2022/03/31 02:25:27;;;;;;;23.52;17.73;;;4.40;99.90;;;;;;5091662;28;20058;-52
2022/03/31 02:27:53;;;;;;;21.88;16.10;;;4.40;99.90;;;;;;5091484;28;20028;-52
2022/03/31 02:30:21;;;;;;;19.73;15.73;;;4.20;99.90;;;;;;5073322;28;20395;-52
2022/03/31 02:32:47;;;;;;;20.35;14.48;;;4.30;99.90;;;;;;5090935;28;20040;-52
2022/03/31 02:35:13;;;;;;;14.48;11.15;;;4.30;99.90;;;;;;5091823;28;20031;-52
2022/03/31 02:37:39;;;;;;;14.75;10.75;;;4.30;99.90;;;;;;5088554;28;20024;-51
2022/03/31 02:40:06;;;;;;;15.25;11.10;;;4.30;99.90;;;;;;5091503;28;20025;-52
2022/03/31 02:42:32;;;;;;;16.15;11.48;;;4.30;99.90;;;;;;5090592;28;20028;-53
2022/03/31 02:44:58;;;;;;;15.05;10.18;;;4.30;99.90;;;;;;5090863;28;20101;-50
2022/03/31 02:47:24;;;;;;;16.17;10.90;;;4.30;99.90;;;;;;5091229;28;20024;-51
2022/03/31 02:49:49;;;;;;;16.25;11.25;;;4.30;99.90;;;;;;5091202;28;20025;-53
2022/03/31 02:52:15;;;;;;;17.92;12.10;;;4.30;99.90;;;;;;5091063;28;20024;-52
2022/03/31 02:57:26;;;;;;;16.80;12.88;;;4.20;99.90;;;;;;5091127;28;20045;-51
2022/03/31 02:59:52;;;;;;;17.75;12.32;;;4.20;99.90;;;;;;5090987;28;20024;-53
2022/03/31 03:02:17;;;;;;;19.35;14.07;;;4.30;99.90;;;;;;5090848;28;20131;-52
2022/03/31 03:04:43;;;;;;;18.02;13.85;;;4.20;99.90;;;;;;5090471;28;20132;-52
2022/03/31 03:07:09;;;;;;;18.83;13.52;;;4.30;99.90;;;;;;5083136;28;20101;-51
2022/03/31 03:09:36;;;;;;;18.42;12.80;;;4.20;99.90;;;;;;5070418;28;20052;-53
2022/03/31 03:12:03;;;;;;;19.00;13.27;;;4.20;99.90;;;;;;5069998;28;20521;-52
2022/03/31 03:14:29;;;;;;;;;;;4.30;99.90;;;;;;5070960;28;20044;-51
2022/03/31 03:16:54;;;;;;;17.48;13.13;;;4.20;99.90;;;;;;5070313;28;20020;-52
2022/03/31 03:19:20;;;;;;;21.38;14.07;;;4.20;99.90;;;;;;5070168;28;20107;-51
2022/03/31 03:21:46;;;;;;;19.08;14.82;;;4.10;99.90;;;;;;5070181;28;20082;-52
2022/03/31 03:24:11;;;;;;;21.83;16.45;;;4.10;99.90;;;;;;5069887;28;20047;-53
2022/03/31 03:26:37;;;;;;;21.20;16.10;;;4.10;99.90;;;;;;5069762;28;20021;-53
2022/03/31 03:29:03;;;;;;;22.23;17.30;;;4.20;99.90;;;;;;5069940;28;20033;-51
2022/03/31 03:31:28;;;;;;;26.15;18.13;;;4.10;99.90;;;;;;5070098;28;20052;-53
2022/03/31 03:33:54;;;;;;;27.05;20.45;;;4.10;99.90;;;;;;5069755;28;20039;-52
2022/03/31 03:36:20;;;;;;;30.67;21.50;;;4.20;99.90;;;;;;5070032;28;20771;-51
2022/03/31 03:38:46;;;;;;;29.73;22.02;;;4.20;99.90;;;;;;5066900;28;20043;-51
2022/03/31 03:41:13;;;;;;;31.08;23.10;;;4.10;99.90;;;;;;5069540;28;20792;-52
2022/03/31 03:43:42;;;;;;;29.83;22.40;;;4.10;99.90;;;;;;5064584;28;20052;-51
2022/03/31 03:46:09;;;;;;;33.22;23.77;;;4.10;99.90;;;;;;5070042;28;20036;-54
2022/03/31 03:48:35;;;;;;;31.13;23.83;;;4.00;99.90;;;;;;5069798;28;20071;-52
2022/03/31 03:51:01;;;;;;;33.50;23.65;;;4.10;99.90;;;;;;5069301;28;20559;-52
2022/03/31 03:53:27;;;;;;;32.42;24.25;;;4.10;99.90;;;;;;5069230;28;20042;-52
2022/03/31 03:55:52;;;;;;;33.80;24.55;;;4.00;99.90;;;;;;5069796;28;20032;-52
2022/03/31 03:58:19;;;;;;;31.77;23.45;;;4.00;99.90;;;;;;5069548;28;20541;-51
2022/03/31 04:00:45;;;;;;;32.20;23.33;;;4.00;99.90;;;;;;5069685;28;20021;-53
2022/03/31 04:03:11;;;;;;;30.60;23.50;;;4.00;99.90;;;;;;5069857;28;20559;-53
2022/03/31 04:05:38;;;;;;;30.70;22.67;;;4.00;99.90;;;;;;5069848;28;20024;-52
2022/03/31 04:08:04;;;;;;;29.10;22.48;;;4.00;99.90;;;;;;5068202;28;20028;-52
2022/03/31 04:10:30;;;;;;;33.13;24.60;;;4.00;99.90;;;;;;5069119;28;20083;-53
2022/03/31 04:12:55;;;;;;;31.90;23.83;;;4.10;99.90;;;;;;5069781;28;20531;-52
2022/03/31 04:15:21;;;;;;;32.67;24.25;;;4.00;99.90;;;;;;5069675;28;20383;-54
2022/03/31 04:17:47;;;;;;;35.40;23.98;;;4.00;99.90;;;;;;5069483;28;20115;-53
2022/03/31 04:20:13;;;;;;;31.92;23.33;;;4.00;99.90;;;;;;5069775;28;20750;-52
2022/03/31 04:22:40;;;;;;;36.85;25.02;;;4.00;99.90;;;;;;5069087;28;20450;-51
2022/03/31 04:25:07;;;;;;;33.72;25.05;;;4.00;99.90;;;;;;5069601;28;20039;-53
2022/03/31 04:27:34;;;;;;;39.72;27.17;;;4.00;99.90;;;;;;5069359;28;20035;-52
2022/03/31 04:30:01;;;;;;;;;;;4.00;99.90;;;;;;5070039;28;20059;-52
2022/03/31 04:32:26;;;;;;;37.47;25.45;;;4.10;99.90;;;;;;5067888;28;20275;-54
2022/03/31 04:34:52;;;;;;;37.00;25.83;;;4.00;99.90;;;;;;5069182;28;20048;-51
2022/03/31 04:37:18;;;;;;;36.55;25.58;;;4.00;99.90;;;;;;5067459;28;20104;-53
2022/03/31 04:39:44;;;;;;;40.63;28.75;;;4.00;99.90;;;;;;5068584;28;20040;-51
2022/03/31 04:42:10;;;;;;;45.33;30.38;;;4.00;99.90;;;;;;5066447;28;20090;-51
2022/03/31 04:44:38;;;;;;;48.42;32.53;;;4.00;99.90;;;;;;5083240;28;20048;-53
2022/03/31 04:47:04;;;;;;;47.13;32.35;;;4.00;99.90;;;;;;5089525;28;20031;-53
2022/03/31 04:49:30;;;;;;;56.40;36.85;;;3.90;99.90;;;;;;5088962;28;20514;-52
2022/03/31 04:51:56;;;;;;;50.05;34.80;;;3.90;99.90;;;;;;5088936;28;20067;-52
2022/03/31 04:54:22;;;;;;;40.70;28.88;;;3.90;99.90;;;;;;5089132;28;20042;-52
2022/03/31 04:56:48;;;;;;;47.83;33.05;;;3.80;99.90;;;;;;5088897;28;20040;-51
2022/03/31 04:59:13;;;;;;;44.33;30.27;;;3.80;99.90;;;;;;5089171;28;20024;-54
2022/03/31 05:01:39;;;;;;;41.78;29.52;;;3.90;99.90;;;;;;5088627;28;20047;-52
2022/03/31 05:04:05;;;;;;;46.03;30.50;;;3.80;99.90;;;;;;5088340;28;20035;-54
2022/03/31 05:06:31;;;;;;;40.97;29.75;;;3.90;99.90;;;;;;5086199;28;20020;-53
2022/03/31 05:08:56;;;;;;;42.28;29.58;;;3.80;99.90;;;;;;5067950;28;20033;-54
2022/03/31 05:11:22;;;;;;;41.83;29.15;;;3.70;99.90;;;;;;5068392;28;20181;-54
2022/03/31 05:13:48;;;;;;;43.13;30.70;;;3.70;99.90;;;;;;5068448;28;20044;-54
2022/03/31 05:16:13;;;;;;;43.70;32.47;;;3.70;99.90;;;;;;5068714;28;20024;-52
2022/03/31 05:18:39;;;;;;;40.72;29.13;;;3.70;99.90;;;;;;5050462;28;20029;-50
2022/03/31 05:21:05;;;;;;;39.60;28.42;;;3.80;99.90;;;;;;5068304;28;20021;-52
2022/03/31 05:23:30;;;;;;;37.78;28.45;;;3.80;99.90;;;;;;5068728;28;20112;-52
2022/03/31 05:25:56;;;;;;;33.88;25.98;;;3.70;99.90;;;;;;5068895;28;20920;-51
2022/03/31 05:28:22;;;;;;;36.28;27.48;;;3.60;99.90;;;;;;5068514;28;20036;-51
2022/03/31 05:30:48;;;;;;;36.28;26.02;;;3.70;99.90;;;;;;5082379;28;20034;-51
2022/03/31 05:33:13;;;;;;;38.05;28.42;;;3.60;99.90;;;;;;5088209;28;20054;-52
2022/03/31 05:35:39;;;;;;;32.67;24.98;;;3.60;99.90;;;;;;5088899;28;20028;-51
2022/03/31 05:38:06;;;;;;;35.28;25.77;;;3.60;99.90;;;;;;5088623;28;20554;-52
2022/03/31 05:40:32;;;;;;;;;;;3.60;99.90;;;;;;5071397;28;20040;-53
2022/03/31 05:42:58;;;;;;;35.88;26.08;;;3.60;99.90;;;;;;5084895;28;19940;-54
2022/03/31 05:45:25;;;;;;;35.92;26.42;;;3.60;99.90;;;;;;5088442;28;20032;-54
2022/03/31 05:47:52;;;;;;;36.67;27.65;;;3.60;99.90;;;;;;5088708;28;20032;-51
2022/03/31 05:50:18;;;;;;;41.58;30.02;;;3.60;99.90;;;;;;5091086;28;20036;-52
2022/03/31 05:52:44;;;;;;;42.33;28.75;;;3.70;99.90;;;;;;5092175;28;20387;-51
2022/03/31 05:55:14;;;;;;;40.35;28.40;;;3.60;99.90;;;;;;5092648;28;20150;-51
2022/03/31 05:57:40;;;;;;;41.08;28.75;;;3.60;99.90;;;;;;5092425;28;20028;-53
2022/03/31 06:00:09;;;;;;;49.85;35.90;;;3.50;99.90;;;;;;5092130;28;20020;-52
2022/03/31 06:02:35;;;;;;;42.65;30.33;;;3.50;99.90;;;;;;5091754;28;20368;-51
2022/03/31 06:05:00;;;;;;;44.55;31.33;;;3.60;99.90;;;;;;5073938;28;20035;-51
2022/03/31 06:07:26;;;;;;;41.33;30.25;;;3.60;99.90;;;;;;5082921;28;20306;-51
2022/03/31 06:09:52;;;;;;;36.65;26.70;;;3.60;99.90;;;;;;5091556;28;20032;-53
2022/03/31 06:12:17;;;;;;;37.85;28.40;;;3.50;99.90;;;;;;5092969;28;20059;-53
2022/03/31 06:14:44;;;;;;;44.88;30.10;;;3.50;99.90;;;;;;5092425;28;20407;-53
2022/03/31 06:17:09;;;;;;;40.90;30.60;;;3.60;99.90;;;;;;5089856;28;20024;-51
2022/03/31 06:19:35;;;;;;;42.08;30.08;;;3.60;99.90;;;;;;5090974;28;20016;-51
2022/03/31 06:22:01;;;;;;;42.95;31.40;;;3.50;99.90;;;;;;5090917;28;20034;-52
2022/03/31 06:24:27;;;;;;;43.10;33.10;;;3.60;99.90;;;;;;5091054;28;20099;-51
2022/03/31 06:26:54;;;;;;;41.28;30.58;;;3.60;99.90;;;;;;5091075;28;20103;-52
2022/03/31 06:29:19;;;;;;;;;;;3.60;99.90;;;;;;5090705;28;20115;-50
2022/03/31 06:31:45;;;;;;;43.70;30.80;;;3.60;99.90;;;;;;5090241;28;19912;-51
2022/03/31 06:34:11;;;;;;;49.33;34.63;;;3.60;99.90;;;;;;5090640;28;20028;-52
2022/03/31 06:36:37;;;;;;;46.53;33.15;;;3.70;99.90;;;;;;5090733;28;20479;-52
2022/03/31 06:39:03;;;;;;;43.03;30.52;;;3.60;99.90;;;;;;5089292;28;20115;-52
2022/03/31 06:41:29;;;;;;;41.85;29.92;;;3.70;99.90;;;;;;5089160;28;20074;-54
2022/03/31 06:43:54;;;;;;;41.67;28.95;;;3.60;99.90;;;;;;5087243;28;20439;-54
2022/03/31 06:46:20;;;;;;;43.08;29.95;;;3.60;99.90;;;;;;5090452;28;20024;-52
2022/03/31 06:48:47;;;;;;;44.60;30.48;;;3.50;99.90;;;;;;5090468;28;20410;-52
2022/03/31 06:51:15;;;;;;;42.50;30.70;;;3.50;99.90;;;;;;5084800;28;20046;-51
2022/03/31 06:53:42;;;;;;;48.17;31.58;;;3.50;99.90;;;;;;5078747;28;20369;-53
2022/03/31 06:56:10;;;;;;;51.17;34.65;;;3.50;99.90;;;;;;5069858;28;20335;-52
2022/03/31 06:58:37;;;;;;;50.65;34.35;;;3.60;99.90;;;;;;5068698;28;20032;-52
2022/03/31 07:01:05;;;;;;;55.37;36.07;;;3.60;99.90;;;;;;5068030;28;20048;-55
2022/03/31 07:03:31;;;;;;;50.17;33.60;;;3.60;99.90;;;;;;5072089;28;20028;-52
2022/03/31 07:05:57;;;;;;;58.55;38.17;;;3.60;99.90;;;;;;5089334;28;20070;-54
2022/03/31 07:08:23;;;;;;;52.90;37.28;;;3.70;99.90;;;;;;5071760;28;20109;-52
2022/03/31 07:10:49;;;;;;;45.70;32.40;;;3.80;99.90;;;;;;5070055;28;20033;-53
2022/03/31 07:13:15;;;;;;;50.58;36.35;;;3.70;99.90;;;;;;5069934;28;20103;-57
2022/03/31 07:15:41;;;;;;;47.00;33.90;;;3.80;99.90;;;;;;5070189;28;20036;-53
2022/03/31 07:18:07;;;;;;;52.38;35.75;;;3.80;99.90;;;;;;5069286;28;20499;-52
2022/03/31 07:20:34;;;;;;;49.42;34.58;;;3.80;99.90;;;;;;5069897;28;20032;-51
2022/03/31 07:23:01;;;;;;;51.22;36.72;;;3.80;99.90;;;;;;5069588;28;20029;-52
2022/03/31 07:25:27;;;;;;;54.10;38.33;;;3.80;99.90;;;;;;5070101;28;20056;-51
2022/03/31 07:27:54;;;;;;;52.03;37.38;;;3.80;99.90;;;;;;5069868;28;20206;-53
2022/03/31 07:30:21;;;;;;;49.83;35.97;;;3.90;99.90;;;;;;5069797;28;20111;-51
2022/03/31 07:32:57;;;;;;;53.40;36.85;;;3.90;99.90;;;;;;5085861;28;20043;-52
2022/03/31 07:35:24;;;;;;;45.10;33.65;;;4.00;99.90;;;;;;5089300;28;20053;-53
2022/03/31 07:37:51;;;;;;;46.03;32.10;;;3.90;99.90;;;;;;5071137;28;20535;-52
2022/03/31 07:40:17;;;;;;;48.05;34.20;;;4.00;99.90;;;;;;5089966;28;20044;-53
2022/03/31 07:42:44;;;;;;;45.78;33.75;;;4.00;99.90;;;;;;5084349;28;20513;-51
2022/03/31 07:45:11;;;;;;;45.53;32.63;;;3.90;99.90;;;;;;5089609;28;20058;-53
2022/03/31 07:47:38;;;;;;;42.65;30.70;;;4.00;99.90;;;;;;5090631;28;20035;-52
2022/03/31 07:50:06;;;;;;;47.30;35.03;;;4.00;99.90;;;;;;5090850;28;20046;-51
2022/03/31 07:52:31;;;;;;;44.50;31.60;;;4.00;99.90;;;;;;5090092;28;20031;-52
2022/03/31 07:54:57;;;;;;;40.60;30.35;;;4.00;99.90;;;;;;5089787;28;20036;-53
2022/03/31 07:57:23;;;;;;;62.53;41.03;;;4.00;99.90;;;;;;5088609;28;20032;-51
2022/03/31 07:59:48;;;;;;;79.38;50.58;;;4.00;99.90;;;;;;5089660;28;20024;-53
2022/03/31 08:02:16;;;;;;;47.30;32.22;;;4.10;99.90;;;;;;5089920;28;20107;-52
2022/03/31 08:04:41;;;;;;;44.40;31.70;;;4.10;99.90;;;;;;5089297;28;20016;-51
2022/03/31 08:07:07;;;;;;;42.72;31.80;;;4.10;99.90;;;;;;5089856;28;20032;-52
2022/03/31 08:09:33;;;;;;;41.22;30.48;;;4.10;99.90;;;;;;5090173;28;20080;-52
2022/03/31 08:11:59;;;;;;;42.05;30.52;;;4.20;99.90;;;;;;5089257;28;20024;-51
2022/03/31 08:14:25;;;;;;;42.90;32.15;;;4.10;99.90;;;;;;5089085;28;20092;-53
2022/03/31 08:16:51;;;;;;;40.17;27.83;;;4.10;99.90;;;;;;5089771;28;20053;-53
2022/03/31 08:19:18;;;;;;;44.97;32.50;;;4.00;99.90;;;;;;5081690;28;20041;-51
2022/03/31 08:21:45;;;;;;;;;;;4.00;99.90;;;;;;5068454;28;20017;-51
2022/03/31 08:24:13;;;;;;;45.90;32.60;;;4.10;99.90;;;;;;5066572;28;20253;-54
2022/03/31 08:26:40;;;;;;;52.30;34.92;;;4.00;99.90;;;;;;5067850;28;20028;-52
2022/03/31 08:29:07;;;;;;;49.50;32.88;;;4.10;99.90;;;;;;5067553;28;20021;-50
2022/03/31 08:31:33;;;;;;;45.83;33.10;;;4.10;99.90;;;;;;5050226;28;20650;-50
2022/03/31 08:33:59;;;;;;;42.75;30.30;;;4.10;99.90;;;;;;5067958;28;20040;-53
2022/03/31 08:36:24;;;;;;;45.60;31.17;;;4.10;99.90;;;;;;5068130;28;20494;-51
2022/03/31 08:38:50;;;;;;;47.55;33.05;;;4.10;99.90;;;;;;5068290;28;20020;-50
2022/03/31 08:41:18;;;;;;;47.88;32.60;;;4.20;99.90;;;;;;5068887;28;20024;-51
2022/03/31 08:43:44;;;;;;;49.40;33.63;;;4.20;99.90;;;;;;5085870;28;20499;-53
2022/03/31 08:46:10;;;;;;;47.63;32.25;;;4.20;99.90;;;;;;5089502;28;20031;-53
2022/03/31 08:48:39;;;;;;;45.15;32.75;;;4.20;99.90;;;;;;5089332;28;20024;-51
2022/03/31 08:51:05;;;;;;;49.60;34.97;;;4.20;99.90;;;;;;5081797;28;20457;-53
2022/03/31 08:53:32;;;;;;;46.53;33.78;;;4.20;99.90;;;;;;5068643;28;20036;-52
2022/03/31 08:55:58;;;;;;;47.20;33.63;;;4.20;99.90;;;;;;5069034;28;20534;-51
2022/03/31 08:58:25;;;;;;;50.40;33.63;;;4.30;99.90;;;;;;5069019;28;20043;-50
2022/03/31 09:00:50;;;;;;;52.97;34.92;;;4.30;99.90;;;;;;5069105;28;20561;-52
2022/03/31 09:03:17;;;;;;;47.65;33.13;;;4.30;99.90;;;;;;5068581;28;20068;-51
2022/03/31 09:05:52;;;;;;;45.42;33.42;;;4.30;99.90;;;;;;5069070;28;20028;-51
2022/03/31 09:08:18;;;;;;;42.85;32.40;;;4.30;99.90;;;;;;5052097;28;20113;-50
2022/03/31 09:10:49;;;;;;;46.28;34.63;;;4.30;99.90;;;;;;5068689;28;20081;-53
2022/03/31 09:13:24;;;;;;;47.70;33.88;;;4.40;99.90;;;;;;5068820;28;20035;-51
2022/03/31 09:16:02;;;;;;;54.92;36.90;;;4.40;99.90;;;;;;5051073;28;20036;-52
2022/03/31 09:18:29;;;;;;;;;;;4.40;99.90;;;;;;5066133;28;20040;-51
2022/03/31 09:20:58;;;;;;;54.40;36.08;;;4.40;99.90;;;;;;5076222;28;19911;-50
2022/03/31 09:23:26;;;;;;;54.70;37.95;;;4.50;99.90;;;;;;5059029;28;20035;-52
2022/03/31 09:25:53;;;;;;;54.33;37.10;;;4.50;99.90;;;;;;5088549;28;20430;-51
2022/03/31 09:28:23;;;;;;;51.78;36.47;;;4.50;99.90;;;;;;5088589;28;20020;-50
2022/03/31 09:30:50;;;;;;;52.92;36.85;;;4.50;99.90;;;;;;5088936;28;20064;-51
2022/03/31 09:35:45;;;;;;;448.00;292.48;;;4.50;99.90;;;;;;4967459;28;20058;-51
2022/03/31 09:38:12;;;;;;;84.07;52.92;;;4.60;99.90;;;;;;4969696;28;20034;-53
2022/03/31 09:40:38;;;;;;;87.17;49.80;;;4.60;99.90;;;;;;4969874;28;20039;-52
2022/03/31 09:43:03;;;;;;;53.50;37.40;;;4.60;99.90;;;;;;4969385;28;20081;-53
2022/03/31 09:45:39;;;;;;;50.92;35.35;;;4.60;99.90;;;;;;4968142;28;20069;-52
2022/03/31 09:48:15;;;;;;;48.50;34.17;;;4.60;99.90;;;;;;4957203;28;20031;-52
2022/03/31 09:50:42;;;;;;;50.65;33.25;;;4.60;99.90;;;;;;4961239;28;20651;-52
2022/03/31 09:53:08;;;;;;;47.00;33.43;;;4.60;99.90;;;;;;4959373;28;20753;-54
2022/03/31 09:55:35;;;;;;;42.63;29.55;;;4.60;99.90;;;;;;4969483;28;20379;-53
2022/03/31 09:58:02;;;;;;;44.40;27.85;;;4.60;99.90;;;;;;4966983;28;20251;-52
2022/03/31 10:00:28;;;;;;;42.28;26.83;;;4.60;99.90;;;;;;4967218;28;20385;-52
2022/03/31 10:02:55;;;;;;;39.42;28.73;;;4.50;99.90;;;;;;4966518;28;20110;-51
2022/03/31 10:05:22;;;;;;;46.45;29.80;;;4.60;99.90;;;;;;4968210;28;20064;-52
2022/03/31 10:07:50;;;;;;;53.45;35.67;;;4.60;99.90;;;;;;4967787;28;20035;-52
2022/03/31 10:10:16;;;;;;;55.67;39.75;;;4.60;99.90;;;;;;4964756;28;20039;-52
2022/03/31 10:12:53;;;;;;;59.72;40.55;;;4.60;99.90;;;;;;4958305;28;20504;-53
2022/03/31 10:15:39;;;;;;;51.63;35.00;;;4.60;99.90;;;;;;4961131;28;20090;-52
2022/03/31 10:18:05;;;;;;;58.13;38.55;;;4.70;99.90;;;;;;4961921;28;20490;-52
2022/03/31 10:20:30;;;;;;;61.97;40.72;;;4.70;99.90;;;;;;4964827;28;20026;-52
2022/03/31 10:25:45;;;;;;;56.63;37.97;;;4.70;99.90;;;;;;4961654;28;20405;-52
2022/03/31 10:28:20;;;;;;;59.88;40.20;;;4.70;99.90;;;;;;4956225;28;20608;-52
2022/03/31 10:30:59;;;;;;;64.40;42.88;;;4.70;99.90;;;;;;4959777;28;20466;-51
2022/03/31 10:33:50;;;;;;;61.30;41.65;;;4.70;99.90;;;;;;4964764;28;20058;-53
2022/03/31 10:36:18;;;;;;;62.15;41.30;;;4.80;99.90;;;;;;4991315;28;20044;-53
2022/03/31 10:38:54;;;;;;;56.92;38.45;;;4.70;99.90;;;;;;5011613;28;20029;-53
2022/03/31 10:41:32;;;;;;;58.33;39.33;;;4.80;99.90;;;;;;5002023;28;20024;-53
2022/03/31 10:43:58;;;;;;;62.42;40.00;;;4.70;99.90;;;;;;5009294;28;20587;-54
2022/03/31 10:46:25;;;;;;;58.63;38.63;;;4.80;99.90;;;;;;5010968;28;20030;-52
2022/03/31 10:48:55;;;;;;;;;;;4.80;99.90;;;;;;5011345;28;20029;-52
2022/03/31 10:51:34;;;;;;;49.67;33.50;;;4.70;99.90;;;;;;5009889;28;19910;-51
2022/03/31 10:54:00;;;;;;;49.53;33.28;;;4.70;99.90;;;;;;5007579;28;20120;-51
2022/03/31 10:56:29;;;;;;;44.95;30.33;;;4.70;99.90;;;;;;5011189;28;20066;-53
2022/03/31 10:59:00;;;;;;;42.28;29.88;;;4.70;99.90;;;;;;5010968;28;20029;-55
2022/03/31 11:01:34;;;;;;;45.60;31.38;;;4.70;99.90;;;;;;5010759;28;20072;-53
2022/03/31 11:04:05;;;;;;;53.67;35.60;;;4.60;99.90;;;;;;5010322;28;20127;-53
2022/03/31 11:06:31;;;;;;;54.00;35.30;;;4.60;99.90;;;;;;5011025;28;20030;-53
2022/03/31 11:08:56;;;;;;;58.28;39.30;;;4.60;99.90;;;;;;4992775;28;20054;-51
2022/03/31 11:11:25;;;;;;;60.53;38.08;;;4.70;99.90;;;;;;5010706;28;20026;-53
2022/03/31 11:13:52;;;;;;;55.72;38.58;;;4.60;99.90;;;;;;5010600;28;20033;-53
2022/03/31 11:16:19;;;;;;;56.83;38.67;;;4.70;99.90;;;;;;5010718;28;20216;-53
2022/03/31 11:18:55;;;;;;;;;;;4.70;99.90;;;;;;5011318;28;20273;-53
2022/03/31 11:21:23;;;;;;;66.97;41.65;;;4.70;99.90;;;;;;5010735;28;20022;-52
2022/03/31 11:23:50;;;;;;;61.00;39.13;;;4.80;99.90;;;;;;5005017;28;20036;-50
2022/03/31 11:26:29;;;;;;;62.38;38.63;;;4.80;99.90;;;;;;5010221;28;20026;-52
2022/03/31 11:28:56;;;;;;;68.95;41.28;;;4.70;99.90;;;;;;4997409;28;20623;-53
2022/03/31 11:31:23;;;;;;;65.57;41.03;;;4.70;99.90;;;;;;4991155;28;20504;-51
2022/03/31 11:33:49;;;;;;;72.63;42.90;;;4.80;99.90;;;;;;4990751;28;20405;-51
2022/03/31 11:36:17;;;;;;;68.70;44.00;;;4.70;99.90;;;;;;5005274;28;20963;-52
2022/03/31 11:38:57;;;;;;;70.90;45.15;;;4.80;99.90;;;;;;5010563;28;20026;-52
2022/03/31 11:41:23;;;;;;;74.13;43.83;;;4.80;99.90;;;;;;5009609;28;20029;-51
2022/03/31 11:43:49;;;;;;;66.60;42.67;;;4.80;99.90;;;;;;5009970;28;20030;-51
2022/03/31 11:46:15;;;;;;;61.80;38.50;;;4.70;99.90;;;;;;5010065;28;20030;-52
2022/03/31 11:48:41;;;;;;;55.95;34.78;;;4.80;99.90;;;;;;5009608;28;20396;-51
2022/03/31 11:51:09;;;;;;;49.83;31.70;;;4.70;99.90;;;;;;5009990;28;20022;-53
2022/03/31 11:53:39;;;;;;;48.75;29.77;;;4.70;99.90;;;;;;5009173;28;20415;-52
2022/03/31 11:56:27;;;;;;;46.47;29.05;;;4.60;99.90;;;;;;5008934;28;20493;-52
2022/03/31 11:58:57;;;;;;;45.55;28.92;;;4.60;99.90;;;;;;5008172;28;20112;-51
2022/03/31 12:01:43;;;;;;;47.40;28.80;;;4.70;99.90;;;;;;5010308;28;20022;-52
2022/03/31 12:04:18;;;;;;;43.13;27.50;;;4.70;99.90;;;;;;5009396;28;20144;-51
2022/03/31 12:06:44;;;;;;;42.47;27.40;;;4.60;99.90;;;;;;5009963;28;20026;-51
2022/03/31 12:09:11;;;;;;;51.15;31.17;;;4.60;99.90;;;;;;5009514;28;20037;-53
2022/03/31 12:11:36;;;;;;;51.63;30.58;;;4.50;99.90;;;;;;5009876;28;20030;-52
2022/03/31 12:14:04;;;;;;;146.23;96.40;;;4.60;99.90;;;;;;4991237;28;20053;-53
2022/03/31 12:16:30;;;;;;;65.50;41.47;;;4.70;99.90;;;;;;5008706;28;20034;-52
2022/03/31 12:18:57;;;;;;;57.05;35.90;;;4.70;99.90;;;;;;4991311;28;20034;-53
2022/03/31 12:21:28;;;;;;;56.92;35.67;;;4.70;99.90;;;;;;5009792;28;20021;-54
2022/03/31 12:24:01;;;;;;;60.33;39.50;;;4.70;99.90;;;;;;4987290;28;20129;-53
2022/03/31 12:26:27;;;;;;;60.00;36.75;;;4.50;99.90;;;;;;5010386;28;20022;-52
2022/03/31 12:28:53;;;;;;;55.53;36.80;;;4.60;99.90;;;;;;5009198;28;20473;-52
2022/03/31 12:31:23;;;;;;;54.88;36.95;;;4.60;99.90;;;;;;5009811;28;20026;-52
2022/03/31 12:33:53;;;;;;;64.38;39.95;;;4.60;99.90;;;;;;5009189;28;20057;-52
2022/03/31 12:36:33;;;;;;;72.47;44.30;;;4.60;99.90;;;;;;5009839;28;20027;-53
2022/03/31 12:39:03;;;;;;;74.15;48.67;;;4.70;99.90;;;;;;5009878;28;20014;-52
2022/03/31 12:41:34;;;;;;;75.85;48.15;;;4.70;99.90;;;;;;5010395;28;20104;-52
2022/03/31 12:44:11;;;;;;;75.20;48.30;;;4.70;99.90;;;;;;5009745;28;20544;-53
2022/03/31 12:46:42;;;;;;;76.65;48.65;;;4.50;99.90;;;;;;5009974;28;20100;-54
2022/03/31 12:49:13;;;;;;;75.55;48.03;;;4.50;99.90;;;;;;5009250;28;20056;-53